Time;durP1;ratioP1;P1;durP2;ratioP2;P2;SDS_P1;SDS_P2;PMS_P1;PMS_P2;Temp;Humidity;BMP_temperature;BMP_pressure;BME280_temperature;BME280_humidity;BME280_pressure;Samples;Min_cycle;Max_cycle;Signal;HPM_P1;HPM_P2
2021/11/15 00:01:56;;;;;;;1.48;1.38;;;19.00;65.60;;;;;;5037352;28;20508;-30
2021/11/15 00:04:22;;;;;;;1.75;1.65;;;19.00;65.50;;;;;;5036219;28;20025;-29
2021/11/15 00:06:47;;;;;;;1.63;1.52;;;19.00;65.80;;;;;;5047285;28;20041;-29
2021/11/15 00:09:13;;;;;;;2.83;1.60;;;19.00;65.80;;;;;;5036125;28;20028;-28
2021/11/15 00:11:39;;;;;;;1.55;1.45;;;18.90;66.10;;;;;;5037312;28;20477;-31
2021/11/15 00:14:05;;;;;;;1.30;1.20;;;18.90;66.00;;;;;;5030679;28;20018;-31
2021/11/15 00:16:31;;;;;;;1.60;1.50;;;19.00;65.80;;;;;;5018543;28;20561;-32
2021/11/15 00:18:57;;;;;;;1.65;1.40;;;18.90;65.90;;;;;;5017100;28;20061;-28
2021/11/15 00:21:22;;;;;;;2.30;1.15;;;18.90;65.70;;;;;;5017337;28;20037;-32
2021/11/15 00:23:48;;;;;;;1.42;1.33;;;18.90;65.70;;;;;;5017468;28;20053;-30
2021/11/15 00:26:14;;;;;;;1.30;1.20;;;18.90;66.10;;;;;;5022193;28;20029;-29
2021/11/15 00:28:40;;;;;;;1.38;1.27;;;18.80;66.00;;;;;;5024627;28;20052;-30
2021/11/15 00:31:06;;;;;;;1.55;1.45;;;18.90;66.00;;;;;;5043334;28;20082;-28
2021/11/15 00:33:31;;;;;;;1.20;1.10;;;18.90;65.70;;;;;;5056777;28;20025;-31
2021/11/15 00:35:57;;;;;;;1.30;1.20;;;18.90;65.80;;;;;;5056368;28;20032;-31
2021/11/15 00:38:23;;;;;;;1.40;1.30;;;18.80;66.00;;;;;;5043712;28;20023;-31
2021/11/15 00:40:48;;;;;;;1.13;1.10;;;18.90;65.70;;;;;;5040567;28;20161;-33
2021/11/15 00:43:14;;;;;;;1.05;1.05;;;18.90;65.70;;;;;;5055609;28;20021;-27
2021/11/15 00:45:40;;;;;;;1.40;1.30;;;18.90;65.80;;;;;;5025033;28;20057;-24
2021/11/15 00:48:06;;;;;;;1.40;1.10;;;18.80;65.80;;;;;;5027662;28;20029;-32
2021/11/15 00:50:32;;;;;;;1.02;0.98;;;18.80;65.90;;;;;;5048092;28;20033;-30
2021/11/15 00:52:57;;;;;;;0.98;0.98;;;18.90;65.80;;;;;;5056417;28;20100;-26
2021/11/15 00:55:23;;;;;;;1.10;0.95;;;18.80;65.80;;;;;;5056675;28;20037;-27
2021/11/15 00:57:49;;;;;;;1.30;1.20;;;18.80;65.80;;;;;;5043643;28;20061;-29
2021/11/15 01:00:18;;;;;;;1.20;1.10;;;18.80;65.80;;;;;;5024000;28;20026;-28
2021/11/15 01:02:43;;;;;;;1.35;1.23;;;18.80;65.80;;;;;;5039907;28;20041;-27
2021/11/15 01:05:09;;;;;;;1.20;1.20;;;18.80;65.90;;;;;;5043151;28;20037;-31
2021/11/15 01:07:35;;;;;;;1.50;1.23;;;18.80;65.90;;;;;;5033086;28;20091;-29
2021/11/15 01:10:01;;;;;;;1.10;1.02;;;18.80;65.90;;;;;;5048354;28;20016;-27
2021/11/15 01:12:27;;;;;;;1.10;1.00;;;18.70;66.10;;;;;;5020699;28;20033;-29
2021/11/15 01:14:52;;;;;;;1.25;1.15;;;18.70;66.00;;;;;;5017873;28;20402;-28
2021/11/15 01:17:18;;;;;;;0.98;0.98;;;18.70;65.90;;;;;;5023892;28;20030;-29
2021/11/15 01:19:43;;;;;;;3.90;1.00;;;18.70;65.90;;;;;;5038865;28;20040;-30
2021/11/15 01:22:09;;;;;;;1.13;1.08;;;18.70;65.90;;;;;;5036522;28;20018;-31
2021/11/15 01:24:35;;;;;;;1.05;0.98;;;18.80;65.90;;;;;;5031144;28;20036;-35
2021/11/15 01:27:00;;;;;;;0.82;0.82;;;18.80;65.60;;;;;;5036125;28;20160;-23
2021/11/15 01:29:26;;;;;;;0.93;0.90;;;18.70;65.70;;;;;;5045614;28;20029;-28
2021/11/15 01:31:56;;;;;;;1.10;0.93;;;18.80;65.80;;;;;;5060298;28;20021;-30
2021/11/15 01:34:23;;;;;;;1.10;1.00;;;18.70;65.80;;;;;;5059981;28;20029;-29
2021/11/15 01:36:48;;;;;;;0.90;0.90;;;18.80;65.60;;;;;;5075094;28;20017;-34
2021/11/15 01:39:14;;;;;;;0.77;0.77;;;18.70;66.50;;;;;;5060240;28;20029;-28
2021/11/15 01:41:39;;;;;;;0.77;0.77;;;18.70;65.70;;;;;;5060177;28;20036;-28
2021/11/15 01:44:05;;;;;;;1.77;0.98;;;18.70;65.60;;;;;;5026082;28;20459;-34
2021/11/15 01:46:31;;;;;;;1.20;1.10;;;18.70;65.70;;;;;;5030480;28;20761;-31
2021/11/15 01:48:56;;;;;;;1.00;1.00;;;18.70;65.70;;;;;;5039635;28;20033;-29
2021/11/15 01:51:22;;;;;;;1.02;1.00;;;18.70;65.70;;;;;;5042442;28;20033;-28
2021/11/15 01:53:48;;;;;;;1.17;1.10;;;18.70;65.80;;;;;;5020735;28;20605;-29
2021/11/15 01:56:14;;;;;;;1.33;1.00;;;18.70;65.50;;;;;;5032251;28;20022;-27
2021/11/15 01:58:39;;;;;;;1.50;1.40;;;18.70;65.50;;;;;;5047890;28;20032;-33
2021/11/15 02:01:06;;;;;;;1.35;1.25;;;18.70;65.70;;;;;;5059759;28;20520;-33
2021/11/15 02:03:32;;;;;;;1.35;1.25;;;18.70;65.70;;;;;;5059854;28;20135;-30
2021/11/15 02:05:58;;;;;;;1.00;1.00;;;18.70;65.90;;;;;;5037298;28;20032;-31
2021/11/15 02:08:24;;;;;;;1.60;1.50;;;18.60;65.80;;;;;;5029543;28;20029;-31
2021/11/15 02:10:49;;;;;;;1.27;1.17;;;18.60;65.80;;;;;;5033975;28;20043;-30
2021/11/15 02:13:16;;;;;;;1.13;1.13;;;18.60;66.10;;;;;;5055524;28;20051;-32
2021/11/15 02:15:42;;;;;;;1.20;1.10;;;18.60;65.80;;;;;;5045944;28;20500;-31
2021/11/15 02:18:08;;;;;;;0.90;0.90;;;18.60;65.80;;;;;;5039509;28;20040;-31
2021/11/15 02:20:47;;;;;;;1.02;1.02;;;18.60;65.90;;;;;;5036115;28;20026;-28
2021/11/15 02:23:13;;;;;;;1.08;1.08;;;18.60;65.80;;;;;;5029377;28;20061;-26
2021/11/15 02:25:39;;;;;;;1.25;1.15;;;18.60;65.70;;;;;;5032728;28;20438;-32
2021/11/15 02:28:06;;;;;;;1.48;1.38;;;18.60;65.60;;;;;;5032705;28;20033;-29
2021/11/15 02:30:32;;;;;;;1.05;1.05;;;18.60;65.60;;;;;;5053017;28;20367;-30
2021/11/15 02:32:57;;;;;;;0.90;0.90;;;18.60;65.80;;;;;;5058932;28;20075;-33
2021/11/15 02:35:23;;;;;;;0.90;0.90;;;18.60;65.80;;;;;;5050169;28;20667;-32
2021/11/15 02:37:49;;;;;;;1.30;1.20;;;18.60;65.70;;;;;;5026218;28;20076;-34
2021/11/15 02:40:18;;;;;;;2.70;1.10;;;18.60;65.80;;;;;;5031186;28;20100;-28
2021/11/15 02:42:44;;;;;;;1.02;1.02;;;18.60;65.70;;;;;;5026796;28;20121;-31
2021/11/15 02:45:10;;;;;;;1.10;1.10;;;18.60;65.70;;;;;;5024717;28;20049;-27
2021/11/15 02:47:35;;;;;;;1.02;1.02;;;18.60;65.70;;;;;;5038675;28;20033;-35
2021/11/15 02:50:01;;;;;;;1.02;0.98;;;18.60;65.60;;;;;;5047011;28;20025;-29
2021/11/15 02:52:27;;;;;;;1.02;1.02;;;18.60;65.50;;;;;;5037408;28;20087;-33
2021/11/15 02:54:57;;;;;;;0.85;0.85;;;18.60;65.50;;;;;;5038440;28;20548;-30
2021/11/15 02:57:23;;;;;;;0.80;0.80;;;18.60;65.40;;;;;;5055976;28;20029;-28
2021/11/15 02:59:48;;;;;;;1.23;1.13;;;18.60;65.40;;;;;;5052645;28;20043;-31
2021/11/15 03:02:14;;;;;;;1.00;0.85;;;18.50;65.40;;;;;;5038462;28;20048;-26
2021/11/15 03:04:40;;;;;;;1.05;0.98;;;18.60;65.20;;;;;;5036404;28;20028;-32
2021/11/15 03:07:06;;;;;;;0.90;0.90;;;18.60;65.30;;;;;;5047400;28;20458;-30
2021/11/15 03:09:32;;;;;;;0.85;0.82;;;18.60;65.20;;;;;;5038162;28;20123;-33
2021/11/15 03:11:57;;;;;;;1.10;1.05;;;18.60;65.10;;;;;;5038575;28;20026;-27
2021/11/15 03:14:23;;;;;;;0.70;0.70;;;18.70;65.10;;;;;;5034642;28;20041;-32
2021/11/15 03:16:48;;;;;;;1.02;1.02;;;18.70;65.10;;;;;;5040439;28;20497;-29
2021/11/15 03:19:14;;;;;;;1.45;1.15;;;18.60;65.10;;;;;;5046795;28;20025;-28
2021/11/15 03:21:40;;;;;;;1.15;1.15;;;18.70;65.10;;;;;;5025118;28;20033;-31
2021/11/15 03:24:05;;;;;;;0.90;0.80;;;18.50;65.20;;;;;;5038506;28;20029;-30
2021/11/15 03:26:31;;;;;;;0.98;0.80;;;18.60;65.10;;;;;;5057770;28;20082;-30
2021/11/15 03:28:56;;;;;;;0.80;0.80;;;18.60;65.10;;;;;;5058017;28;20028;-30
2021/11/15 03:31:27;;;;;;;1.10;0.90;;;18.60;65.00;;;;;;5057934;28;20029;-24
2021/11/15 03:33:58;;;;;;;0.88;0.88;;;18.60;65.10;;;;;;5058153;28;20110;-29
2021/11/15 03:36:24;;;;;;;0.90;0.90;;;18.60;65.00;;;;;;5034838;28;20176;-32
2021/11/15 03:38:51;;;;;;;0.90;0.88;;;18.60;65.00;;;;;;5022932;28;20056;-36
2021/11/15 03:41:17;;;;;;;1.23;1.13;;;18.70;64.80;;;;;;5025185;28;20034;-27
2021/11/15 03:43:42;;;;;;;1.13;0.90;;;18.60;64.80;;;;;;5032071;28;20026;-27
2021/11/15 03:46:08;;;;;;;1.20;1.08;;;18.60;64.80;;;;;;5054214;28;20539;-32
2021/11/15 03:48:34;;;;;;;1.02;1.02;;;18.60;64.80;;;;;;5057752;28;20549;-27
2021/11/15 03:50:59;;;;;;;0.90;0.90;;;18.60;64.80;;;;;;5036676;28;20493;-28
2021/11/15 03:53:34;;;;;;;1.10;1.10;;;18.70;64.80;;;;;;5024843;28;20032;-30
2021/11/15 03:56:00;;;;;;;0.90;0.90;;;18.60;64.70;;;;;;5038073;28;20035;-32
2021/11/15 03:58:26;;;;;;;1.00;1.00;;;18.60;64.60;;;;;;5057417;28;20088;-30
2021/11/15 04:00:52;;;;;;;0.90;0.90;;;18.60;64.60;;;;;;5057566;28;20163;-30
2021/11/15 04:03:30;;;;;;;0.70;0.70;;;18.60;64.60;;;;;;5037605;28;20033;-31
2021/11/15 04:05:59;;;;;;;1.00;1.00;;;18.70;64.50;;;;;;5031971;28;20041;-28
2021/11/15 04:08:25;;;;;;;0.70;0.70;;;18.60;64.70;;;;;;5037504;28;20040;-29
2021/11/15 04:10:51;;;;;;;0.80;0.80;;;18.60;64.60;;;;;;5030959;28;20030;-29
2021/11/15 04:13:19;;;;;;;0.90;0.90;;;18.60;64.60;;;;;;5027846;28;20425;-32
2021/11/15 04:15:46;;;;;;;1.00;1.00;;;18.60;64.60;;;;;;5031063;28;20045;-30
2021/11/15 04:18:16;;;;;;;0.90;0.90;;;18.60;64.60;;;;;;5028295;28;20036;-31
2021/11/15 04:20:42;;;;;;;0.70;0.70;;;18.60;64.60;;;;;;5040055;28;20025;-29
2021/11/15 04:23:08;;;;;;;1.05;1.00;;;18.60;64.60;;;;;;5057334;28;20021;-29
2021/11/15 04:25:34;;;;;;;1.10;1.10;;;18.60;64.50;;;;;;5057141;28;20096;-32
2021/11/15 04:28:00;;;;;;;0.85;0.85;;;18.60;64.50;;;;;;5056526;28;20446;-33
2021/11/15 04:30:30;;;;;;;0.90;0.90;;;18.60;64.60;;;;;;5029328;28;20034;-33
2021/11/15 04:32:56;;;;;;;0.70;0.70;;;18.60;64.40;;;;;;5017378;28;20048;-32
2021/11/15 04:35:22;;;;;;;0.90;0.90;;;18.60;64.40;;;;;;5021265;28;20103;-27
2021/11/15 04:37:48;;;;;;;1.00;0.90;;;18.60;64.40;;;;;;5027865;28;20026;-32
2021/11/15 04:40:14;;;;;;;0.95;0.95;;;18.60;64.40;;;;;;5056689;28;20115;-30
2021/11/15 04:42:39;;;;;;;0.75;0.75;;;18.60;64.40;;;;;;5031862;28;20474;-27
2021/11/15 04:45:06;;;;;;;0.73;0.73;;;18.60;65.10;;;;;;5016611;28;20054;-29
2021/11/15 04:47:31;;;;;;;0.80;0.80;;;18.60;64.20;;;;;;5022624;28;20034;-30
2021/11/15 04:49:57;;;;;;;0.90;0.90;;;18.60;64.30;;;;;;5048799;28;20029;-30
2021/11/15 04:52:23;;;;;;;0.70;0.70;;;18.60;64.30;;;;;;5056734;28;20028;-32
2021/11/15 04:54:48;;;;;;;0.80;0.80;;;18.60;64.30;;;;;;5041201;28;20053;-28
2021/11/15 04:57:15;;;;;;;0.70;0.70;;;18.60;64.20;;;;;;5032042;28;20026;-29
2021/11/15 04:59:41;;;;;;;0.80;0.80;;;18.60;64.20;;;;;;5016998;28;20026;-26
2021/11/15 05:02:06;;;;;;;0.70;0.70;;;18.60;64.30;;;;;;5025090;28;20025;-29
2021/11/15 05:04:32;;;;;;;0.70;0.70;;;18.60;64.20;;;;;;5033839;28;20108;-28
2021/11/15 05:06:57;;;;;;;0.82;0.82;;;18.60;64.20;;;;;;5030282;28;20813;-27
2021/11/15 05:09:23;;;;;;;0.70;0.70;;;18.60;64.10;;;;;;5056131;28;20347;-28
2021/11/15 05:11:49;;;;;;;0.90;0.90;;;18.60;64.10;;;;;;5045526;28;20736;-31
2021/11/15 05:14:14;;;;;;;0.60;0.60;;;18.60;64.10;;;;;;5028610;28;20026;-25
2021/11/15 05:16:40;;;;;;;0.70;0.70;;;18.60;64.10;;;;;;5034864;28;20040;-30
2021/11/15 05:19:05;;;;;;;0.77;0.77;;;18.50;64.10;;;;;;5038862;28;20505;-27
2021/11/15 05:21:31;;;;;;;0.80;0.80;;;18.60;64.10;;;;;;5043364;28;20033;-31
2021/11/15 05:23:56;;;;;;;0.70;0.70;;;18.60;64.20;;;;;;5023064;28;20117;-32
2021/11/15 05:26:22;;;;;;;0.70;0.70;;;18.50;64.10;;;;;;5035825;28;20053;-31
2021/11/15 05:28:48;;;;;;;0.88;0.88;;;18.50;64.00;;;;;;5052249;28;20039;-25
2021/11/15 05:31:13;;;;;;;0.80;0.80;;;18.60;64.10;;;;;;5026651;28;20097;-30
2021/11/15 05:33:39;;;;;;;0.85;0.85;;;18.50;64.00;;;;;;5032965;28;20104;-30
2021/11/15 05:36:05;;;;;;;0.80;0.80;;;18.50;65.00;;;;;;5040950;28;20028;-30
2021/11/15 05:38:31;;;;;;;0.73;0.73;;;18.50;64.10;;;;;;5028493;28;20021;-29
2021/11/15 05:40:56;;;;;;;0.68;0.68;;;18.50;64.00;;;;;;5029218;28;20029;-29
2021/11/15 05:43:23;;;;;;;0.70;0.70;;;18.50;64.00;;;;;;5036001;28;20029;-32
2021/11/15 05:45:48;;;;;;;0.77;0.77;;;18.50;64.00;;;;;;5020231;28;20128;-29
2021/11/15 05:48:15;;;;;;;0.70;0.70;;;18.50;64.00;;;;;;5029178;28;20092;-30
2021/11/15 05:50:41;;;;;;;0.60;0.60;;;18.50;64.00;;;;;;5018778;28;20109;-29
2021/11/15 05:53:06;;;;;;;0.70;0.70;;;18.50;64.10;;;;;;5039645;28;20087;-29
2021/11/15 05:55:32;;;;;;;0.90;0.90;;;18.50;64.00;;;;;;5036014;28;20048;-31
2021/11/15 05:57:57;;;;;;;0.90;0.90;;;18.50;64.00;;;;;;5036198;28;21186;-33
2021/11/15 06:00:25;;;;;;;0.80;0.80;;;18.50;64.00;;;;;;5046623;28;20033;-27
2021/11/15 06:02:52;;;;;;;0.70;0.70;;;18.50;64.00;;;;;;5040088;28;20088;-28
2021/11/15 06:05:17;;;;;;;0.80;0.80;;;18.50;64.00;;;;;;5039706;28;20036;-33
2021/11/15 06:07:43;;;;;;;0.77;0.77;;;18.50;64.00;;;;;;5034689;28;20105;-33
2021/11/15 06:10:09;;;;;;;0.80;0.80;;;18.50;64.00;;;;;;5024460;28;20048;-30
2021/11/15 06:12:35;;;;;;;1.10;1.10;;;18.50;64.20;;;;;;5046666;28;20041;-29
2021/11/15 06:15:01;;;;;;;1.00;1.00;;;18.50;64.40;;;;;;5049743;28;20045;-31
2021/11/15 06:17:26;;;;;;;1.13;1.02;;;18.50;64.50;;;;;;5038118;28;20041;-30
2021/11/15 06:19:52;;;;;;;23.50;10.65;;;18.50;65.30;;;;;;5036992;28;20056;-30
2021/11/15 06:22:18;;;;;;;28.25;13.02;;;18.50;64.60;;;;;;5034913;28;20049;-24
2021/11/15 06:24:47;;;;;;;38.83;15.07;;;18.40;65.40;;;;;;5008294;28;20097;-30
2021/11/15 06:27:14;;;;;;;32.50;14.07;;;18.50;65.00;;;;;;5025652;28;20457;-30
2021/11/15 06:29:40;;;;;;;28.15;11.52;;;18.40;65.70;;;;;;5033059;28;20058;-27
2021/11/15 06:32:07;;;;;;;26.08;12.02;;;18.40;66.00;;;;;;5007194;28;20419;-34
2021/11/15 06:34:33;;;;;;;27.45;12.73;;;18.40;66.70;;;;;;4662208;28;10000439;-25
2021/11/15 06:36:59;;;;;;;32.65;12.60;;;18.40;65.80;;;;;;5014584;28;20142;-33
2021/11/15 06:39:26;;;;;;;24.60;13.27;;;18.40;66.10;;;;;;5008962;28;20081;-32
2021/11/15 06:41:54;;;;;;;25.42;11.68;;;18.40;66.60;;;;;;5005278;28;20050;-28
2021/11/15 06:44:22;;;;;;;32.03;13.18;;;18.40;66.50;;;;;;5029103;28;20061;-30
2021/11/15 06:46:48;;;;;;;21.67;10.77;;;18.40;66.40;;;;;;5033455;28;20518;-30
2021/11/15 06:49:14;;;;;;;22.15;10.98;;;18.40;66.40;;;;;;5035846;28;20048;-25
2021/11/15 06:51:40;;;;;;;25.85;11.73;;;18.50;66.30;;;;;;4683349;28;10000506;-31
2021/11/15 06:54:05;;;;;;;26.08;11.70;;;18.50;66.30;;;;;;5039921;28;20546;-29
2021/11/15 06:56:31;;;;;;;22.77;11.02;;;18.40;66.90;;;;;;5031201;28;20069;-26
2021/11/15 06:58:57;;;;;;;28.92;12.65;;;18.40;66.70;;;;;;5019741;28;20468;-30
2021/11/15 07:01:22;;;;;;;27.33;11.43;;;18.50;67.20;;;;;;5049542;28;20045;-33
2021/11/15 07:03:48;;;;;;;25.10;11.75;;;18.40;67.40;;;;;;5027256;28;20050;-28
2021/11/15 07:06:14;;;;;;;26.38;11.48;;;18.40;67.70;;;;;;5040506;28;20048;-31
2021/11/15 07:08:40;;;;;;;28.95;11.95;;;18.40;68.20;;;;;;5038057;28;20041;-27
2021/11/15 07:11:06;;;;;;;28.15;12.68;;;18.40;68.30;;;;;;5047489;28;20097;-32
2021/11/15 07:13:31;;;;;;;28.80;12.90;;;18.40;68.20;;;;;;5047956;28;20049;-26
2021/11/15 07:15:57;;;;;;;29.42;12.23;;;18.50;68.10;;;;;;5024306;28;20038;-32
2021/11/15 07:18:23;;;;;;;26.15;12.43;;;18.50;68.10;;;;;;5019351;28;20655;-30
2021/11/15 07:20:48;;;;;;;24.05;11.90;;;18.40;68.30;;;;;;5008794;28;20103;-31
2021/11/15 07:23:14;;;;;;;22.00;11.10;;;18.40;68.10;;;;;;5019922;28;20045;-26
2021/11/15 07:25:40;;;;;;;25.85;12.07;;;18.50;68.00;;;;;;5018739;28;20048;-30
2021/11/15 07:28:06;;;;;;;25.95;11.38;;;18.40;67.80;;;;;;5028086;28;20073;-28
2021/11/15 07:30:31;;;;;;;23.48;10.40;;;18.40;68.10;;;;;;5010267;28;20053;-32
2021/11/15 07:32:57;;;;;;;22.55;11.02;;;18.40;68.30;;;;;;5024541;28;20123;-25
2021/11/15 07:35:23;;;;;;;23.55;10.65;;;18.40;68.00;;;;;;5030857;28;20041;-34
2021/11/15 07:37:48;;;;;;;21.58;11.63;;;18.40;68.20;;;;;;5014205;28;20042;-31
2021/11/15 07:40:15;;;;;;;21.58;10.30;;;18.50;68.30;;;;;;5020870;28;20560;-29
2021/11/15 07:42:41;;;;;;;20.75;9.98;;;18.50;68.00;;;;;;5029209;28;20057;-26
2021/11/15 07:45:07;;;;;;;21.92;10.57;;;18.50;68.20;;;;;;5026631;28;20050;-27
2021/11/15 07:47:34;;;;;;;19.38;10.75;;;18.50;68.40;;;;;;5022282;28;20060;-33
2021/11/15 07:50:00;;;;;;;18.48;10.07;;;18.40;68.30;;;;;;5005200;28;20062;-30
2021/11/15 07:52:26;;;;;;;18.58;10.45;;;18.50;68.00;;;;;;5004809;28;20054;-28
2021/11/15 07:54:52;;;;;;;21.98;9.70;;;18.50;68.30;;;;;;5016581;28;20049;-31
2021/11/15 07:57:17;;;;;;;18.25;10.00;;;18.50;67.60;;;;;;5020286;28;20137;-31
2021/11/15 07:59:44;;;;;;;16.92;9.88;;;18.70;67.40;;;;;;5021385;28;20095;-28
2021/11/15 08:02:11;;;;;;;17.45;9.98;;;18.50;68.00;;;;;;5021489;28;20426;-29
2021/11/15 08:04:37;;;;;;;22.27;9.27;;;18.60;67.80;;;;;;5021024;28;20046;-28
2021/11/15 08:07:03;;;;;;;15.90;10.13;;;18.60;67.40;;;;;;5007163;28;20096;-28
2021/11/15 08:09:28;;;;;;;16.60;8.60;;;18.70;67.30;;;;;;5005278;28;20603;-29
2021/11/15 08:12:00;;;;;;;14.13;7.97;;;18.70;67.30;;;;;;5011243;28;20059;-25
2021/11/15 08:14:26;;;;;;;15.02;8.82;;;18.80;66.90;;;;;;5020824;28;20137;-28
2021/11/15 08:16:52;;;;;;;17.63;8.82;;;18.80;67.50;;;;;;5019338;28;20155;-30
2021/11/15 08:19:18;;;;;;;16.65;8.55;;;18.80;66.90;;;;;;5015647;28;20049;-27
2021/11/15 08:21:43;;;;;;;12.63;7.95;;;18.80;67.00;;;;;;5002800;28;20076;-32
2021/11/15 08:24:20;;;;;;;12.55;7.95;;;18.80;66.80;;;;;;5019406;28;20046;-27
2021/11/15 08:26:46;;;;;;;15.35;7.50;;;18.80;66.70;;;;;;5004530;28;20059;-27
2021/11/15 08:29:14;;;;;;;13.50;7.40;;;18.80;66.60;;;;;;5002413;28;20055;-27
2021/11/15 08:31:40;;;;;;;12.23;7.30;;;18.90;66.50;;;;;;5000832;28;20053;-30
2021/11/15 08:34:06;;;;;;;13.13;7.18;;;18.90;66.50;;;;;;5023890;28;20064;-27
2021/11/15 08:36:32;;;;;;;12.20;7.68;;;18.90;66.20;;;;;;5019060;28;20049;-31
2021/11/15 08:39:14;;;;;;;11.02;7.32;;;18.90;66.30;;;;;;5036309;28;20045;-28
2021/11/15 08:41:41;;;;;;;11.52;6.65;;;18.90;66.20;;;;;;5021016;28;20049;-27
2021/11/15 08:44:10;;;;;;;10.80;7.20;;;18.90;66.10;;;;;;5021528;28;20051;-32
2021/11/15 08:46:35;;;;;;;10.57;6.50;;;19.00;66.00;;;;;;5019262;28;20056;-32
2021/11/15 08:49:04;;;;;;;13.80;6.78;;;19.00;65.80;;;;;;5019952;28;20054;-28
2021/11/15 08:51:29;;;;;;;10.40;6.43;;;19.00;65.70;;;;;;5023552;28;20407;-34
2021/11/15 08:53:55;;;;;;;10.82;6.82;;;19.00;65.50;;;;;;5038224;28;20069;-32
2021/11/15 08:56:21;;;;;;;11.32;7.32;;;19.00;65.50;;;;;;5017318;28;20056;-34
2021/11/15 08:58:47;;;;;;;8.68;6.20;;;19.00;65.70;;;;;;5034499;28;20069;-30
2021/11/15 09:01:13;;;;;;;9.70;6.25;;;19.00;65.50;;;;;;5030370;28;20132;-32
2021/11/15 09:03:40;;;;;;;8.20;5.90;;;19.10;65.70;;;;;;5034715;28;20132;-29
2021/11/15 09:06:06;;;;;;;8.40;6.15;;;19.00;65.50;;;;;;5035319;28;20017;-27
2021/11/15 09:08:32;;;;;;;9.07;6.30;;;19.00;66.30;;;;;;5039315;28;20034;-29
2021/11/15 09:10:58;;;;;;;9.73;6.28;;;18.90;66.30;;;;;;5035389;28;20029;-26
2021/11/15 09:13:24;;;;;;;9.70;5.85;;;18.80;66.70;;;;;;5034857;28;20029;-24
2021/11/15 09:15:49;;;;;;;9.50;5.90;;;18.70;67.50;;;;;;5034436;28;20072;-25
2021/11/15 09:18:15;;;;;;;8.98;5.50;;;18.70;67.60;;;;;;5038725;28;20469;-28
2021/11/15 09:20:40;;;;;;;6.22;5.53;;;18.70;67.30;;;;;;5039537;28;20041;-31
2021/11/15 09:23:06;;;;;;;9.82;5.70;;;18.70;67.80;;;;;;5022850;28;20076;-28
2021/11/15 09:25:32;;;;;;;7.75;6.18;;;18.80;67.80;;;;;;5029733;28;20046;-27
2021/11/15 09:27:57;;;;;;;6.53;5.45;;;18.90;67.30;;;;;;5031603;28;20096;-29
2021/11/15 09:30:23;;;;;;;8.50;5.28;;;18.90;67.30;;;;;;5053866;28;20049;-33
2021/11/15 09:32:48;;;;;;;7.22;5.53;;;19.00;66.80;;;;;;5039404;28;20053;-28
2021/11/15 09:35:14;;;;;;;6.30;5.68;;;18.90;67.30;;;;;;5030243;28;20073;-28
2021/11/15 09:37:40;;;;;;;6.63;5.18;;;19.10;66.20;;;;;;5035442;28;20037;-29
2021/11/15 09:40:07;;;;;;;9.02;5.82;;;19.10;66.40;;;;;;5032743;28;20057;-31
2021/11/15 09:42:33;;;;;;;7.18;4.97;;;19.00;66.80;;;;;;5048634;28;20103;-28
2021/11/15 09:45:01;;;;;;;5.88;4.88;;;19.00;66.70;;;;;;5058648;28;20057;-28
2021/11/15 09:47:27;;;;;;;6.10;5.32;;;19.00;67.40;;;;;;5058080;28;20037;-25
2021/11/15 09:49:53;;;;;;;5.80;4.50;;;18.90;67.60;;;;;;5049917;28;20049;-31
2021/11/15 09:52:19;;;;;;;7.43;4.75;;;18.90;67.90;;;;;;5010804;28;21133;-31
2021/11/15 09:54:45;;;;;;;5.28;4.18;;;18.90;67.80;;;;;;5039170;28;20041;-24
2021/11/15 09:57:13;;;;;;;6.95;5.22;;;19.00;67.70;;;;;;5048126;28;20045;-24
2021/11/15 09:59:40;;;;;;;6.80;4.72;;;19.00;67.40;;;;;;5025482;28;20053;-26
2021/11/15 10:02:05;;;;;;;6.45;4.50;;;19.00;67.70;;;;;;5014925;28;20071;-26
2021/11/15 10:04:31;;;;;;;7.53;4.28;;;19.00;67.80;;;;;;5022891;28;20056;-26
2021/11/15 10:06:57;;;;;;;8.73;4.88;;;19.10;67.80;;;;;;5023059;28;20785;-25
2021/11/15 10:09:32;;;;;;;6.10;4.63;;;19.10;67.60;;;;;;5023411;28;20107;-23
2021/11/15 10:12:19;;;;;;;5.63;4.50;;;19.10;67.60;;;;;;5023406;28;20077;-24
2021/11/15 10:15:02;;;;;;;6.03;4.82;;;19.10;67.70;;;;;;5015148;28;20053;-21
2021/11/15 10:17:38;;;;;;;4.70;4.30;;;19.10;67.60;;;;;;5023689;28;20060;-26
2021/11/15 10:20:04;;;;;;;5.68;4.55;;;19.20;67.70;;;;;;5022656;28;20224;-28
2021/11/15 10:22:30;;;;;;;4.60;4.15;;;19.20;67.70;;;;;;5021726;28;20642;-28
2021/11/15 10:24:56;;;;;;;4.38;3.97;;;19.20;67.50;;;;;;5023931;28;20053;-30
2021/11/15 10:27:26;;;;;;;4.25;3.85;;;19.30;67.50;;;;;;5023010;28;20065;-22
2021/11/15 10:29:52;;;;;;;4.15;3.75;;;19.20;67.00;;;;;;5023287;28;20045;-28
2021/11/15 10:32:28;;;;;;;4.43;4.03;;;19.30;67.40;;;;;;5020461;28;20090;-21
2021/11/15 10:35:01;;;;;;;4.38;4.07;;;19.30;67.30;;;;;;5022887;28;20131;-25
2021/11/15 10:37:32;;;;;;;5.90;4.07;;;19.30;67.10;;;;;;5015455;28;20085;-28
2021/11/15 10:40:06;;;;;;;3.72;3.30;;;19.30;68.10;;;;;;5013176;28;20045;-30
2021/11/15 10:42:46;;;;;;;4.55;4.15;;;19.40;67.10;;;;;;5012773;28;20325;-27
2021/11/15 10:45:19;;;;;;;3.97;3.67;;;19.40;67.00;;;;;;5022483;28;20060;-28
2021/11/15 10:47:52;;;;;;;4.20;3.80;;;19.40;67.00;;;;;;5021668;28;20132;-27
2021/11/15 10:50:24;;;;;;;4.20;3.90;;;19.40;66.80;;;;;;5036642;28;20049;-30
2021/11/15 10:52:57;;;;;;;4.13;3.83;;;19.40;66.90;;;;;;5021388;28;20064;-28
2021/11/15 10:55:23;;;;;;;5.50;4.18;;;19.40;66.90;;;;;;5022656;28;20056;-29
2021/11/15 10:57:49;;;;;;;4.30;3.90;;;19.40;66.80;;;;;;5023141;28;20046;-27
2021/11/15 11:00:16;;;;;;;6.63;4.32;;;19.40;66.70;;;;;;5037154;28;20053;-30
2021/11/15 11:02:46;;;;;;;4.75;3.05;;;19.40;66.70;;;;;;5020698;28;20095;-27
2021/11/15 11:05:13;;;;;;;5.00;3.78;;;19.40;66.60;;;;;;5022818;28;20057;-26
2021/11/15 11:07:40;;;;;;;3.78;3.15;;;19.50;66.70;;;;;;5022472;28;20056;-25
2021/11/15 11:10:07;;;;;;;4.03;3.67;;;19.40;66.70;;;;;;5023094;28;20594;-28
2021/11/15 11:12:40;;;;;;;3.60;3.30;;;19.40;67.00;;;;;;5020708;28;20053;-27
2021/11/15 11:15:28;;;;;;;5.45;3.92;;;19.40;66.90;;;;;;5023246;28;20057;-27
2021/11/15 11:18:10;;;;;;;3.88;3.53;;;19.40;66.70;;;;;;5021929;28;20073;-29
2021/11/15 11:23:34;;;;;;;3.78;3.47;;;19.50;66.60;;;;;;5021915;28;20096;-28
2021/11/15 11:26:14;;;;;;;3.50;3.20;;;19.50;66.60;;;;;;5021958;28;20054;-28
2021/11/15 11:28:42;;;;;;;3.50;3.30;;;19.50;66.60;;;;;;5021544;28;20045;-28
2021/11/15 11:31:07;;;;;;;3.63;3.33;;;19.60;66.60;;;;;;5037700;28;20057;-31
2021/11/15 11:33:33;;;;;;;3.75;3.20;;;19.50;66.60;;;;;;5020567;28;20541;-29
2021/11/15 11:35:59;;;;;;;4.13;3.53;;;19.50;66.40;;;;;;5022541;28;20749;-28
2021/11/15 11:38:25;;;;;;;3.53;3.20;;;19.60;66.40;;;;;;5021684;28;20053;-31
2021/11/15 11:40:51;;;;;;;3.17;2.88;;;19.60;66.30;;;;;;5022471;28;20486;-26
2021/11/15 11:43:17;;;;;;;3.28;2.97;;;19.60;66.20;;;;;;5020412;28;20061;-28
2021/11/15 11:45:43;;;;;;;3.72;3.38;;;19.70;66.20;;;;;;5022274;28;20064;-28
2021/11/15 11:48:09;;;;;;;2.88;2.67;;;19.60;66.10;;;;;;5022300;28;20053;-27
2021/11/15 11:50:36;;;;;;;3.58;3.28;;;19.70;66.10;;;;;;5021068;28;20052;-32
2021/11/15 11:53:04;;;;;;;5.03;3.45;;;19.70;66.00;;;;;;5034766;28;20457;-22
2021/11/15 11:55:32;;;;;;;3.17;2.97;;;19.70;65.90;;;;;;5021276;28;20060;-33
2021/11/15 11:57:57;;;;;;;2.80;2.60;;;19.70;65.80;;;;;;5036457;28;20041;-31
2021/11/15 12:00:23;;;;;;;3.35;2.90;;;19.70;65.70;;;;;;5021622;28;20049;-30
2021/11/15 12:02:49;;;;;;;2.30;2.20;;;19.80;65.60;;;;;;5020859;28;20670;-25
2021/11/15 12:05:19;;;;;;;2.75;2.55;;;19.80;65.50;;;;;;5021620;28;20057;-26
2021/11/15 12:07:56;;;;;;;3.88;3.58;;;19.80;66.40;;;;;;4673442;28;9999810;-30
2021/11/15 12:10:57;;;;;;;2.63;2.47;;;19.70;65.80;;;;;;5018795;28;20060;-28
2021/11/15 12:13:24;;;;;;;2.88;2.67;;;19.70;65.90;;;;;;5017732;28;20115;-26
2021/11/15 12:15:50;;;;;;;3.40;3.17;;;19.60;65.80;;;;;;4670119;28;10000304;-25
2021/11/15 12:18:23;;;;;;;2.72;2.53;;;19.60;66.00;;;;;;5018139;28;20047;-28
2021/11/15 12:21:04;;;;;;;3.30;2.60;;;19.60;66.10;;;;;;5012401;28;20761;-34
2021/11/15 12:23:44;;;;;;;3.33;2.85;;;19.60;66.00;;;;;;5015332;28;20156;-23
2021/11/15 12:26:16;;;;;;;3.20;2.90;;;19.60;65.90;;;;;;5006575;28;20053;-25
2021/11/15 12:28:43;;;;;;;2.60;2.40;;;19.70;65.60;;;;;;5017553;28;20057;-27
2021/11/15 12:31:09;;;;;;;4.97;3.33;;;19.70;65.40;;;;;;5019794;28;20207;-26
2021/11/15 12:33:36;;;;;;;3.20;3.00;;;19.70;65.30;;;;;;5017295;28;20060;-25
2021/11/15 12:36:07;;;;;;;2.65;2.45;;;19.70;65.30;;;;;;5018965;28;20382;-30
2021/11/15 12:38:40;;;;;;;3.08;2.50;;;19.70;65.00;;;;;;5018282;28;20749;-25
2021/11/15 12:41:24;;;;;;;4.15;2.50;;;19.80;65.10;;;;;;5018732;28;20675;-29
2021/11/15 12:44:05;;;;;;;;;;;19.70;65.00;;;;;;5019161;28;20041;-28
2021/11/15 12:46:51;;;;;;;2.60;2.40;;;19.70;64.90;;;;;;5018339;28;19929;-31